createdAt,value
2023-03-02T00:02:18.967Z,12.70
2023-03-02T00:04:50.425Z,12.77
2023-03-02T00:07:22.910Z,15.13
2023-03-02T00:09:49.579Z,11.43
2023-03-02T00:12:16.188Z,10.77
2023-03-02T00:14:43.009Z,10.50
2023-03-02T00:17:10.563Z,9.73
2023-03-02T00:19:37.602Z,9.80
2023-03-02T00:22:04.236Z,10.43
2023-03-02T00:24:30.895Z,9.13
2023-03-02T00:26:57.615Z,10.77
2023-03-02T00:29:24.349Z,8.43
2023-03-02T00:31:51.094Z,11.47
2023-03-02T00:34:17.727Z,9.57
2023-03-02T00:36:44.521Z,7.93
2023-03-02T00:39:11.351Z,10.47
2023-03-02T00:41:37.885Z,9.17
2023-03-02T00:44:04.484Z,14.33
2023-03-02T00:46:31.446Z,8.23
2023-03-02T00:48:58.288Z,13.30
2023-03-02T00:51:25.216Z,10.40
2023-03-02T00:53:51.748Z,12.37
2023-03-02T00:56:18.247Z,10.50
2023-03-02T00:58:44.826Z,8.93
2023-03-02T01:01:12.623Z,9.80
2023-03-02T01:03:39.398Z,11.07
2023-03-02T01:06:06.515Z,9.87
2023-03-02T01:08:33.553Z,8.50
2023-03-02T01:11:01.439Z,8.83
2023-03-02T01:13:29.207Z,11.17
2023-03-02T01:16:02.886Z,9.20
2023-03-02T01:18:29.589Z,10.93
2023-03-02T01:21:09.542Z,11.37
2023-03-02T01:23:36.182Z,8.27
2023-03-02T01:26:03.023Z,11.70
2023-03-02T01:28:29.478Z,8.73
2023-03-02T01:30:56.018Z,8.33
2023-03-02T01:33:22.839Z,10.10
2023-03-02T01:35:49.504Z,8.90
2023-03-02T01:38:16.169Z,9.00
2023-03-02T01:40:42.758Z,9.33
2023-03-02T01:43:14.926Z,8.10
2023-03-02T01:45:48.108Z,7.93
2023-03-02T01:48:16.960Z,10.30
2023-03-02T01:50:43.674Z,9.10
2023-03-02T01:53:10.229Z,10.30
2023-03-02T01:55:38.274Z,8.40
2023-03-02T01:58:06.350Z,9.47
2023-03-02T02:00:37.595Z,9.43
2023-03-02T02:03:23.837Z,8.40
2023-03-02T02:06:17.962Z,9.87
2023-03-02T02:08:46.259Z,12.47
2023-03-02T02:11:13.176Z,8.80
2023-03-02T02:13:40.118Z,9.87
2023-03-02T02:16:07.388Z,8.33
2023-03-02T02:18:36.534Z,11.90
2023-03-02T02:21:04.968Z,9.47
2023-03-02T02:23:40.568Z,8.00
2023-03-02T02:26:21.096Z,11.90
2023-03-02T02:28:51.140Z,11.87
2023-03-02T02:31:23.641Z,8.80
2023-03-02T02:33:53.738Z,9.67
2023-03-02T02:36:23.214Z,10.33
2023-03-02T02:38:53.416Z,11.27
2023-03-02T02:41:23.695Z,10.80
2023-03-02T02:43:50.446Z,10.17
2023-03-02T02:46:17.265Z,8.77
2023-03-02T02:48:43.986Z,11.30
2023-03-02T02:51:15.338Z,8.87
2023-03-02T02:53:50.366Z,11.90
2023-03-02T02:56:17.503Z,12.20
2023-03-02T02:58:46.547Z,10.03
2023-03-02T03:01:15.198Z,11.23
2023-03-02T03:03:44.296Z,10.23
2023-03-02T03:06:17.893Z,6.93
2023-03-02T03:08:44.383Z,10.47
2023-03-02T03:11:13.096Z,10.23
2023-03-02T03:13:41.295Z,14.83
2023-03-02T03:16:10.357Z,7.90
2023-03-02T03:18:36.995Z,7.57
2023-03-02T03:21:03.742Z,8.10
2023-03-02T03:23:30.410Z,9.53
2023-03-02T03:25:57.052Z,10.70
2023-03-02T03:28:23.682Z,8.93
2023-03-02T03:30:50.608Z,12.67
2023-03-02T03:33:17.120Z,10.07
2023-03-02T03:35:43.714Z,9.37
2023-03-02T03:38:10.626Z,9.30
2023-03-02T03:40:37.199Z,9.77
2023-03-02T03:43:04.398Z,10.87
2023-03-02T03:45:31.253Z,9.30
2023-03-02T03:47:58.324Z,7.13
2023-03-02T03:50:25.053Z,8.67
2023-03-02T03:52:51.584Z,7.27
2023-03-02T03:55:19.508Z,9.90
2023-03-02T03:57:46.118Z,8.17
2023-03-02T04:00:15.065Z,9.20
2023-03-02T04:02:42.207Z,11.73
2023-03-02T04:05:09.402Z,7.93
2023-03-02T04:07:37.496Z,8.67
2023-03-02T04:10:06.061Z,8.03
2023-03-02T04:12:34.820Z,8.20
2023-03-02T04:15:01.409Z,9.07
2023-03-02T04:17:28.252Z,8.40
2023-03-02T04:19:54.976Z,7.80
2023-03-02T04:22:21.714Z,8.30
2023-03-02T04:24:50.244Z,8.30
2023-03-02T04:27:17.536Z,8.00
2023-03-02T04:29:44.832Z,9.50
2023-03-02T04:32:11.844Z,8.80
2023-03-02T04:34:38.389Z,11.30
2023-03-02T04:37:05.477Z,9.37
2023-03-02T04:39:32.048Z,8.00
2023-03-02T04:41:58.793Z,9.87
2023-03-02T04:44:25.584Z,9.30
2023-03-02T04:46:52.411Z,13.10
2023-03-02T04:49:19.611Z,9.00
2023-03-02T04:51:48.230Z,7.70
2023-03-02T04:54:18.226Z,8.83
2023-03-02T04:56:48.400Z,10.93
2023-03-02T04:59:25.858Z,9.80
2023-03-02T05:01:57.870Z,7.77
2023-03-02T05:04:24.950Z,7.60
2023-03-02T05:06:51.989Z,11.60
2023-03-02T05:09:19.068Z,10.47
2023-03-02T05:11:45.668Z,7.27
2023-03-02T05:14:13.055Z,10.53
2023-03-02T05:16:41.226Z,9.47
2023-03-02T05:19:10.010Z,9.53
2023-03-02T05:21:36.536Z,9.87
2023-03-02T05:24:03.345Z,7.27
2023-03-02T05:26:30.009Z,7.17
2023-03-02T05:28:56.941Z,13.07
2023-03-02T05:31:30.832Z,9.30
2023-03-02T05:33:57.990Z,8.30
2023-03-02T05:36:24.569Z,10.03
2023-03-02T05:38:51.152Z,7.30
2023-03-02T05:41:18.036Z,14.93
2023-03-02T05:43:44.815Z,8.50
2023-03-02T05:46:11.402Z,9.90
2023-03-02T05:48:37.940Z,9.83
2023-03-02T05:51:04.898Z,7.80
2023-03-02T05:53:31.558Z,10.97
2023-03-02T05:55:58.124Z,10.67
2023-03-02T05:58:24.844Z,8.90
2023-03-02T06:00:51.383Z,8.20
2023-03-02T06:03:18.638Z,8.20
2023-03-02T06:05:45.320Z,10.07
2023-03-02T06:08:11.864Z,11.93
2023-03-02T06:10:38.625Z,12.13
2023-03-02T06:13:05.133Z,8.83
2023-03-02T06:15:31.732Z,11.80
2023-03-02T06:17:58.302Z,9.30
2023-03-02T06:20:25.135Z,6.30
2023-03-02T06:22:51.907Z,7.90
2023-03-02T06:25:20.764Z,8.33
2023-03-02T06:27:51.518Z,9.23
2023-03-02T06:30:22.612Z,9.93
2023-03-02T06:32:49.547Z,12.93
2023-03-02T06:35:16.265Z,15.10
2023-03-02T06:37:44.351Z,11.87
2023-03-02T06:40:13.463Z,9.13
2023-03-02T06:42:41.028Z,12.03
2023-03-02T06:45:09.160Z,10.43
2023-03-02T06:47:35.793Z,9.30
2023-03-02T06:50:02.676Z,12.70
2023-03-02T06:52:29.210Z,9.57
2023-03-02T06:54:55.937Z,9.50
2023-03-02T06:57:22.841Z,13.30
2023-03-02T06:59:49.396Z,12.83
2023-03-02T07:02:16.354Z,14.97
2023-03-02T07:04:43.093Z,16.27
2023-03-02T07:07:09.631Z,14.07
2023-03-02T07:09:36.151Z,13.00
2023-03-02T07:12:02.790Z,13.67
2023-03-02T07:14:29.315Z,16.50
2023-03-02T07:16:57.506Z,13.27
2023-03-02T07:19:24.410Z,13.83
2023-03-02T07:21:50.890Z,14.40
2023-03-02T07:24:17.496Z,11.40
2023-03-02T07:26:44.061Z,9.13
2023-03-02T07:29:10.610Z,11.80
2023-03-02T07:31:37.370Z,9.33
2023-03-02T07:34:03.976Z,10.57
2023-03-02T07:36:30.479Z,12.67
2023-03-02T07:38:57.556Z,15.80
2023-03-02T07:41:24.114Z,10.77
2023-03-02T07:43:50.679Z,12.77
2023-03-02T07:46:17.763Z,10.80
2023-03-02T07:48:44.539Z,10.50
2023-03-02T07:51:11.302Z,9.73
2023-03-02T07:53:38.195Z,14.03
2023-03-02T07:56:09.744Z,14.20
2023-03-02T07:58:37.015Z,10.70
2023-03-02T08:01:04.422Z,16.10
2023-03-02T08:03:31.089Z,9.97
2023-03-02T08:05:57.860Z,13.27
2023-03-02T08:08:24.795Z,10.63
2023-03-02T08:10:51.416Z,10.10
2023-03-02T08:13:17.973Z,9.70
2023-03-02T08:15:44.650Z,9.20
2023-03-02T08:18:11.195Z,10.93
2023-03-02T08:20:38.225Z,11.53
2023-03-02T08:23:04.742Z,10.93
2023-03-02T08:25:31.469Z,12.23
2023-03-02T08:27:58.126Z,10.90
2023-03-02T08:30:24.937Z,10.23
2023-03-02T08:32:51.602Z,11.43
2023-03-02T08:35:18.333Z,10.03
2023-03-02T08:37:44.843Z,7.83
2023-03-02T08:40:11.888Z,9.90
2023-03-02T08:42:38.436Z,10.40
2023-03-02T08:45:05.595Z,8.37
2023-03-02T08:47:32.561Z,6.47
2023-03-02T08:49:59.250Z,8.63
2023-03-02T08:52:25.754Z,9.87
2023-03-02T08:54:52.558Z,10.30
2023-03-02T08:57:21.203Z,9.87
2023-03-02T08:59:47.934Z,9.63
2023-03-02T09:02:14.510Z,8.43
2023-03-02T09:04:41.834Z,7.07
2023-03-02T09:07:09.635Z,10.90
2023-03-02T09:09:36.212Z,7.60
2023-03-02T09:12:03.146Z,9.10
2023-03-02T09:14:29.725Z,7.67
2023-03-02T09:16:56.345Z,11.93
2023-03-02T09:19:22.959Z,6.90
2023-03-02T09:21:49.874Z,7.07
2023-03-02T09:24:16.568Z,7.30
2023-03-02T09:26:43.280Z,7.20
2023-03-02T09:29:10.213Z,10.33
2023-03-02T09:31:37.860Z,9.30
2023-03-02T09:34:05.187Z,9.40
2023-03-02T09:36:32.816Z,7.33
2023-03-02T09:38:59.488Z,9.40
2023-03-02T09:41:34.355Z,6.70
2023-03-02T09:44:01.058Z,8.80
2023-03-02T09:46:34.601Z,8.07
2023-03-02T09:49:07.212Z,7.90
2023-03-02T09:51:47.563Z,9.67
2023-03-02T09:54:19.556Z,8.20
2023-03-02T09:56:48.977Z,8.53
2023-03-02T09:59:26.662Z,7.73
2023-03-02T10:02:01.402Z,8.37
2023-03-02T10:04:31.617Z,7.13
2023-03-02T10:07:09.173Z,5.97
2023-03-02T10:09:35.951Z,7.03
2023-03-02T10:12:20.057Z,6.40
2023-03-02T10:14:55.387Z,6.90
2023-03-02T10:17:37.196Z,6.37
2023-03-02T10:20:08.823Z,7.30
2023-03-02T10:22:39.310Z,7.27
2023-03-02T10:25:15.043Z,7.47
2023-03-02T10:27:50.705Z,7.43
2023-03-02T10:30:19.972Z,7.20
2023-03-02T10:32:50.222Z,7.03
2023-03-02T10:35:18.136Z,6.27
2023-03-02T10:37:45.171Z,8.10
2023-03-02T10:40:29.662Z,6.90
2023-03-02T10:42:56.722Z,6.87
2023-03-02T10:45:28.772Z,7.27
2023-03-02T10:48:05.797Z,6.10
2023-03-02T10:50:33.138Z,6.70
2023-03-02T10:53:01.915Z,6.70
2023-03-02T10:55:29.598Z,6.50
2023-03-02T10:58:05.335Z,7.20
2023-03-02T11:00:34.187Z,7.10
2023-03-02T11:03:03.515Z,6.43
2023-03-02T11:05:44.404Z,6.40
2023-03-02T11:08:16.850Z,6.97
2023-03-02T11:11:01.867Z,7.27
2023-03-02T11:13:28.801Z,6.50
2023-03-02T11:16:22.183Z,6.90
2023-03-02T11:18:54.726Z,6.37
2023-03-02T11:21:36.106Z,6.77
2023-03-02T11:24:22.435Z,6.10
2023-03-02T11:26:55.798Z,6.20
2023-03-02T11:29:42.250Z,6.83
2023-03-02T11:32:09.020Z,6.83
2023-03-02T11:34:48.931Z,6.57
2023-03-02T11:37:24.243Z,6.30
2023-03-02T11:40:09.064Z,6.60
2023-03-02T11:42:44.853Z,5.60
2023-03-02T11:45:15.438Z,5.57
2023-03-02T11:48:02.084Z,6.43
2023-03-02T11:50:31.765Z,5.57
2023-03-02T11:53:02.021Z,5.50
2023-03-02T11:55:34.055Z,7.77
2023-03-02T11:58:03.542Z,6.03
2023-03-02T12:00:39.795Z,7.53
2023-03-02T12:03:07.560Z,5.40
2023-03-02T12:05:36.923Z,5.17
2023-03-02T12:08:20.365Z,5.60
2023-03-02T12:11:19.263Z,5.67
2023-03-02T12:13:48.872Z,5.00
2023-03-02T12:16:43.403Z,5.80
2023-03-02T12:19:39.730Z,5.77
2023-03-02T12:22:10.526Z,5.63
2023-03-02T12:24:38.922Z,5.57
2023-03-02T12:27:25.537Z,6.43
2023-03-02T12:29:56.868Z,5.20
2023-03-02T12:32:30.020Z,5.47
2023-03-02T12:35:00.862Z,4.53
2023-03-02T12:37:42.710Z,5.17
2023-03-02T12:40:12.356Z,6.83
2023-03-02T12:42:47.989Z,5.70
2023-03-02T12:45:32.628Z,5.93
2023-03-02T12:48:04.064Z,5.40
2023-03-02T12:50:32.758Z,5.60
2023-03-02T12:53:01.664Z,7.07
2023-03-02T12:55:28.251Z,6.00
2023-03-02T12:57:57.954Z,7.07
2023-03-02T13:00:28.517Z,6.23
2023-03-02T13:02:57.043Z,6.70
2023-03-02T13:05:29.183Z,10.20
2023-03-02T13:08:07.593Z,6.13
2023-03-02T13:10:38.094Z,6.07
2023-03-02T13:13:33.131Z,8.07
2023-03-02T13:16:02.134Z,10.10
2023-03-02T13:18:33.763Z,6.67
2023-03-02T13:21:01.651Z,7.27
2023-03-02T13:23:30.444Z,11.67
2023-03-02T13:25:59.192Z,6.07
2023-03-02T13:28:27.713Z,6.03
2023-03-02T13:31:03.771Z,5.77
2023-03-02T13:33:32.188Z,6.37
2023-03-02T13:35:59.217Z,5.97
2023-03-02T13:38:30.325Z,5.57
2023-03-02T13:40:57.689Z,5.73
2023-03-02T13:43:30.504Z,6.67
2023-03-02T13:46:01.984Z,7.43
2023-03-02T13:48:30.733Z,7.13
2023-03-02T13:50:59.251Z,11.50
2023-03-02T13:53:27.605Z,5.77
2023-03-02T13:55:54.820Z,7.20
2023-03-02T13:58:22.874Z,6.40
2023-03-02T14:00:50.126Z,5.67
2023-03-02T14:03:29.100Z,7.10
2023-03-02T14:05:56.708Z,6.83
2023-03-02T14:08:23.511Z,7.10
2023-03-02T14:10:52.759Z,7.20
2023-03-02T14:13:23.270Z,8.17
2023-03-02T14:15:52.479Z,6.40
2023-03-02T14:18:39.552Z,7.30
2023-03-02T14:21:12.522Z,6.73
2023-03-02T14:23:41.141Z,7.00
2023-03-02T14:26:35.175Z,7.70
2023-03-02T14:29:07.189Z,6.40
2023-03-02T14:31:34.810Z,6.67
2023-03-02T14:34:01.828Z,7.80
2023-03-02T14:36:33.801Z,7.37
2023-03-02T14:39:04.427Z,8.23
2023-03-02T14:41:34.434Z,8.00
2023-03-02T14:44:04.993Z,6.30
2023-03-02T14:46:31.629Z,6.73
2023-03-02T14:48:58.179Z,7.00
2023-03-02T14:51:27.077Z,8.80
2023-03-02T14:53:55.715Z,7.20
2023-03-02T14:56:25.116Z,7.13
2023-03-02T14:58:52.521Z,9.80
2023-03-02T15:01:20.050Z,7.90
2023-03-02T15:03:47.119Z,9.20
2023-03-02T15:06:26.064Z,8.70
2023-03-02T15:09:00.096Z,8.80
2023-03-02T15:11:27.593Z,9.23
2023-03-02T15:13:54.715Z,11.43
2023-03-02T15:16:21.838Z,13.20
2023-03-02T15:18:50.023Z,13.47
2023-03-02T15:21:24.549Z,11.63
2023-03-02T15:23:51.469Z,11.53
2023-03-02T15:26:18.272Z,10.73
2023-03-02T15:28:45.640Z,11.33
2023-03-02T15:31:17.632Z,16.17
2023-03-02T15:33:47.612Z,13.93
2023-03-02T15:36:14.587Z,14.13
2023-03-02T15:38:41.513Z,17.47
2023-03-02T15:41:12.363Z,12.20
2023-03-02T15:43:39.406Z,14.80
2023-03-02T15:46:06.994Z,12.20
2023-03-02T15:48:33.564Z,13.20
2023-03-02T15:51:05.168Z,10.13
2023-03-02T15:53:36.063Z,13.93
2023-03-02T15:56:09.052Z,16.00
2023-03-02T15:58:35.707Z,15.75
2023-03-02T16:01:12.774Z,13.87
2023-03-02T16:03:39.419Z,16.60
2023-03-02T16:06:08.656Z,14.23
2023-03-02T16:08:36.138Z,16.00
2023-03-02T16:11:05.964Z,15.47
2023-03-02T16:13:32.681Z,16.83
2023-03-02T16:16:04.695Z,16.83
2023-03-02T16:18:31.448Z,22.67
2023-03-02T16:20:58.274Z,15.07
2023-03-02T16:23:24.940Z,14.70
2023-03-02T16:25:52.503Z,13.90
2023-03-02T16:28:19.585Z,21.13
2023-03-02T16:30:46.761Z,15.50
2023-03-02T16:33:17.131Z,16.27
2023-03-02T16:35:44.669Z,16.73
2023-03-02T16:38:11.192Z,18.10
2023-03-02T16:40:40.119Z,20.97
2023-03-02T16:43:08.979Z,26.47
2023-03-02T16:45:35.898Z,18.73
2023-03-02T16:48:03.613Z,17.37
2023-03-02T16:50:30.748Z,25.60
2023-03-02T16:52:58.732Z,20.67
2023-03-02T16:55:25.757Z,20.63
2023-03-02T16:57:52.476Z,19.40
2023-03-02T17:00:20.152Z,19.50
2023-03-02T17:02:47.039Z,22.37
2023-03-02T17:05:15.469Z,25.77
2023-03-02T17:07:42.048Z,25.83
2023-03-02T17:10:14.089Z,103.00
2023-03-02T17:12:40.823Z,310.40
2023-03-02T17:15:08.227Z,40.20
2023-03-02T17:17:34.741Z,27.50
2023-03-02T17:20:01.245Z,22.60
2023-03-02T17:22:27.751Z,25.63
2023-03-02T17:24:54.281Z,26.33
2023-03-02T17:27:25.236Z,28.87
2023-03-02T17:29:52.389Z,25.90
2023-03-02T17:32:19.231Z,23.10
2023-03-02T17:34:46.416Z,27.97
2023-03-02T17:37:13.373Z,23.57
2023-03-02T17:39:40.348Z,23.00
2023-03-02T17:42:07.276Z,25.87
2023-03-02T17:44:34.628Z,21.00
2023-03-02T17:47:03.852Z,24.00
2023-03-02T17:49:31.040Z,24.43
2023-03-02T17:51:57.895Z,24.37
2023-03-02T17:54:24.516Z,25.57
2023-03-02T17:56:51.094Z,21.63
2023-03-02T17:59:17.727Z,24.70
2023-03-02T18:01:44.562Z,28.57
2023-03-02T18:04:11.697Z,26.83
2023-03-02T18:06:38.256Z,29.80
2023-03-02T18:09:05.128Z,25.70
2023-03-02T18:11:32.292Z,25.20
2023-03-02T18:13:59.381Z,28.20
2023-03-02T18:16:28.067Z,25.93
2023-03-02T18:18:55.766Z,28.13
2023-03-02T18:21:22.844Z,27.40
2023-03-02T18:23:49.426Z,29.43
2023-03-02T18:26:16.572Z,28.33
2023-03-02T18:28:43.149Z,28.27
2023-03-02T18:31:11.332Z,28.43
2023-03-02T18:33:37.954Z,27.63
2023-03-02T18:36:05.469Z,32.43
2023-03-02T18:38:33.471Z,32.53
2023-03-02T18:41:03.000Z,29.40
2023-03-02T18:43:31.664Z,29.43
2023-03-02T18:45:58.312Z,29.43
2023-03-02T18:48:25.237Z,33.53
2023-03-02T18:50:52.256Z,30.90
2023-03-02T18:53:18.954Z,33.17
2023-03-02T18:55:45.755Z,32.47
2023-03-02T18:58:20.538Z,30.50
2023-03-02T19:00:47.943Z,29.50
2023-03-02T19:03:16.425Z,34.10
2023-03-02T19:05:43.575Z,34.07
2023-03-02T19:08:10.707Z,33.50
2023-03-02T19:10:38.478Z,36.50
2023-03-02T19:13:05.637Z,36.43
2023-03-02T19:15:34.773Z,33.77
2023-03-02T19:18:01.473Z,34.33
2023-03-02T19:20:28.472Z,36.03
2023-03-02T19:22:55.345Z,36.50
2023-03-02T19:25:22.541Z,34.10
2023-03-02T19:27:49.076Z,38.20
2023-03-02T19:30:25.022Z,40.50
2023-03-02T19:32:54.034Z,35.47
2023-03-02T19:35:22.992Z,34.27
2023-03-02T19:37:49.750Z,34.20
2023-03-02T19:40:17.858Z,35.97
2023-03-02T19:42:45.574Z,37.47
2023-03-02T19:45:16.193Z,34.33
2023-03-02T19:47:43.184Z,41.27
2023-03-02T19:50:10.330Z,41.97
2023-03-02T19:52:38.347Z,37.33
2023-03-02T19:55:06.816Z,36.30
2023-03-02T19:57:33.587Z,38.37
2023-03-02T20:00:00.213Z,36.27
2023-03-02T20:02:37.322Z,37.97
2023-03-02T20:05:04.403Z,38.70
2023-03-02T20:07:31.273Z,39.97
2023-03-02T20:09:58.168Z,40.97
2023-03-02T20:12:24.731Z,37.77
2023-03-02T20:14:52.884Z,39.03
2023-03-02T20:17:20.249Z,43.50
2023-03-02T20:19:47.659Z,43.20
2023-03-02T20:22:14.443Z,36.47
2023-03-02T20:24:42.293Z,42.17
2023-03-02T20:27:11.540Z,43.23
2023-03-02T20:29:41.026Z,37.60
2023-03-02T20:32:09.179Z,36.80
2023-03-02T20:34:37.019Z,40.67
2023-03-02T20:37:04.977Z,43.70
2023-03-02T20:39:34.344Z,42.73
2023-03-02T20:42:01.356Z,44.40
2023-03-02T20:44:31.056Z,39.93
2023-03-02T20:47:00.428Z,44.03
2023-03-02T20:49:29.420Z,43.00
2023-03-02T20:51:59.272Z,40.03
2023-03-02T20:54:30.045Z,42.50
2023-03-02T20:56:57.062Z,42.60
2023-03-02T20:59:24.311Z,45.30
2023-03-02T21:01:51.609Z,43.67
2023-03-02T21:04:18.365Z,49.33
2023-03-02T21:06:46.219Z,49.57
2023-03-02T21:09:13.639Z,55.33
2023-03-02T21:11:40.716Z,50.20
2023-03-02T21:14:07.557Z,51.67
2023-03-02T21:16:39.181Z,52.50
2023-03-02T21:19:08.943Z,53.50
2023-03-02T21:21:41.871Z,51.90
2023-03-02T21:24:10.776Z,47.50
2023-03-02T21:26:37.786Z,50.70
2023-03-02T21:29:05.653Z,49.30
2023-03-02T21:31:32.756Z,54.43
2023-03-02T21:34:00.250Z,51.63
2023-03-02T21:36:27.798Z,51.37
2023-03-02T21:38:54.644Z,55.20
2023-03-02T21:41:21.492Z,58.43
2023-03-02T21:43:48.564Z,56.67
2023-03-02T21:46:18.203Z,53.23
2023-03-02T21:48:45.208Z,57.10
2023-03-02T21:51:13.292Z,55.53
2023-03-02T21:53:40.267Z,56.03
2023-03-02T21:56:07.584Z,53.70
2023-03-02T21:58:34.652Z,60.00
2023-03-02T22:01:01.186Z,55.50
2023-03-02T22:03:28.243Z,54.87
2023-03-02T22:05:54.822Z,57.47
2023-03-02T22:08:21.719Z,50.63
2023-03-02T22:10:50.322Z,58.53
2023-03-02T22:13:23.393Z,55.07
2023-03-02T22:15:56.761Z,54.13
2023-03-02T22:18:25.743Z,63.40
2023-03-02T22:20:52.735Z,67.10
2023-03-02T22:23:22.534Z,65.20
2023-03-02T22:25:52.452Z,72.73
2023-03-02T22:28:23.435Z,64.57
2023-03-02T22:30:51.422Z,67.60
2023-03-02T22:33:19.852Z,62.80
2023-03-02T22:35:47.609Z,62.57
2023-03-02T22:38:24.234Z,66.63
2023-03-02T22:40:51.775Z,74.13
2023-03-02T22:43:31.168Z,68.37
2023-03-02T22:46:20.246Z,62.17
2023-03-02T22:48:48.810Z,58.90
2023-03-02T22:51:21.319Z,59.33
2023-03-02T22:53:59.528Z,59.30
2023-03-02T22:56:36.027Z,63.93
2023-03-02T22:59:21.520Z,56.13
2023-03-02T23:01:48.874Z,58.20
2023-03-02T23:04:26.836Z,58.17
2023-03-02T23:06:55.763Z,57.60
2023-03-02T23:09:31.084Z,54.83
2023-03-02T23:12:00.418Z,53.60
2023-03-02T23:14:28.999Z,58.87
2023-03-02T23:17:16.928Z,72.97
2023-03-02T23:19:43.947Z,68.03
2023-03-02T23:22:11.086Z,66.90
2023-03-02T23:24:37.971Z,59.00
2023-03-02T23:27:05.044Z,68.47
2023-03-02T23:29:32.067Z,57.80
2023-03-02T23:31:58.756Z,63.20
2023-03-02T23:34:26.168Z,62.07
2023-03-02T23:36:52.696Z,62.80
2023-03-02T23:39:19.295Z,57.43
2023-03-02T23:41:46.057Z,54.73
2023-03-02T23:44:12.634Z,55.07
2023-03-02T23:46:39.384Z,57.10
2023-03-02T23:49:05.964Z,53.20
2023-03-02T23:51:33.184Z,49.97
2023-03-02T23:53:59.821Z,63.47
2023-03-02T23:56:26.387Z,57.57
2023-03-02T23:58:53.043Z,48.80
